Flight Track Log - Related Links

Times and Time Zones

All times are in EDT time to prevent confusion due to time zone crossing. See the JBU51 flight status page for this flight to view local times or setup timezone preferences in your user account.

Time Position Orientation Groundspeed Altitude Reporting Facility
EDT Latitude Longitude Course Direction KTS MPH feet Rate Location/Type
Fri 11:26:27 AM 44.3114 -73.1131 196° South 287 330 6,400  Level Boston Center
Fri 11:27:00 AM 44.1444 -73.2709 195° South  Level FlightAware Approximate
Fri 11:27:27 AM 44.2447 -73.1356 194° South 291 335 9,800  Level Boston Center
Fri 11:28:00 AM 44.0634 -73.3011 194° South  Level FlightAware Approximate
Fri 11:28:27 AM 44.1589 -73.1722 197° South 297 342 11,400  Level Boston Center
Fri 11:29:00 AM 43.9818 -73.3283 194° South  Level FlightAware Approximate
Fri 11:29:27 AM 44.0672 -73.1969 191° South 330 380 13,500  Level Boston Center
Fri 11:30:00 AM 43.9004 -73.3565 196° South  Level FlightAware Approximate
Fri 11:30:27 AM 43.9650 -73.2017 182° South 352 405 16,400  Level Boston Center
Fri 11:31:00 AM 43.8198 -73.3889 196° South  Level FlightAware Approximate
Fri 11:31:27 AM 43.8628 -73.2061 182° South 366 421 18,700  Level Boston Center
Fri 11:32:27 AM 43.7650 -73.2078 181° South 381 438 20,800 2,100 Climbing Boston Center
Fri 11:33:27 AM 43.6422 -73.1717 168° South 397 457 22,900 1,950 Climbing Boston Center
Fri 11:34:27 AM 43.5300 -73.1189 161° South 415 478 24,700 1,545 Climbing Boston Center
Fri 11:35:39 AM 43.4136 -73.0631 161° South 429 494 26,300 1,409 Climbing Boston Center
Fri 11:36:39 AM 43.2847 -73.0047 162° South 442 509 27,800 850 Climbing Boston Center
Fri 11:37:39 AM 43.1619 -72.9467 161° South 453 521 28,000 100 Climbing Boston Center
Fri 11:38:39 AM 43.0247 -72.9200 172° South 451 519 28,000  Level Boston Center
Fri 11:39:39 AM 42.9139 -72.9900 205° Southwest 425 489 28,000  Level Boston Center
Fri 11:40:39 AM 42.8197 -73.0600 209° Southwest 420 483 28,000  Level Boston Center
Fri 11:41:39 AM 42.7108 -73.1353 207° Southwest 433 498 28,000 -200 Level Boston Center
Fri 11:42:39 AM 42.5917 -73.2100 205° Southwest 439 505 27,600 -700 Descending Boston Center
Fri 11:43:39 AM 42.4847 -73.2789 205° Southwest 439 505 26,600 -800 Descending Boston Center
Fri 11:44:39 AM 42.3800 -73.3481 206° Southwest 429 494 26,000 -300 Descending Boston Center
Fri 11:45:39 AM 42.2775 -73.4194 207° Southwest 428 493 26,000  Level Boston Center
Fri 11:46:39 AM 42.1747 -73.4878 206° Southwest 422 486 26,000  Level Boston Center
Fri 11:47:39 AM 42.0697 -73.5589 207° Southwest 422 486 26,000  Level Boston Center
Fri 11:48:39 AM 41.9606 -73.6322 207° Southwest 429 494 26,000  Level Boston Center
Fri 11:50:53 AM 41.7350 -73.8011 209° Southwest 410 472 26,000 -402 Level New York Center
Fri 11:51:53 AM 41.6372 -73.8769 210° Southwest 415 478 24,700 -1,736 Descending New York Center
Fri 11:52:54 AM 41.5436 -73.9475 209° Southwest 406 467 22,500 -2,100 Descending New York Center
Fri 11:53:53 AM 41.4481 -74.0178 209° Southwest 400 460 20,500 -1,261 Descending New York Center
Fri 11:54:53 AM 41.3586 -74.0881 211° Southwest 395 455 20,000 -248 Descending New York Center
Fri 11:55:54 AM 41.2711 -74.1608 212° Southwest 388 447 20,000  Level New York Center
Fri 11:56:54 AM 41.1628 -74.1664 182° South 372 428 20,000 -49 Level New York Center
Fri 11:57:56 AM 41.0528 -74.1500 174° South 378 435 19,900 -152 Descending New York Center
Fri 11:58:13 AM 41.0167 -74.1500 180° South 368 423 19,800 -857 Descending New York TRACON
Fri 11:59:13 AM 40.9333 -74.1167 163° South 342 394 18,800 -1,100 Descending New York TRACON
Fri 12:00:13 PM 40.8333 -74.0833 166° South 333 383 17,600 -1,300 Descending New York TRACON
Fri 12:01:13 PM 40.7500 -74.0333 156° South 330 380 16,200 -1,550 Descending New York TRACON
Fri 12:02:13 PM 40.6667 -74.0000 163° South 317 365 14,500 -1,550 Descending New York TRACON
Fri 12:03:13 PM 40.5833 -73.9667 163° South 312 359 13,100 -700 Descending New York TRACON
Fri 12:04:13 PM 40.5000 -73.9333 163° South 313 360 13,100  Level New York TRACON
Fri 12:05:13 PM 40.4167 -73.9000 163° South 309 356 13,100 -750 Level New York TRACON
Fri 12:06:13 PM 40.3500 -73.8167 136° Southeast 323 372 11,600 -1,450 Descending New York TRACON
Fri 12:07:13 PM 40.3167 -73.7333 118° Southeast 311 358 10,200 -1,450 Descending New York TRACON
Fri 12:08:13 PM 40.3500 -73.6333 66° East 298 343 8,700 -1,500 Descending New York TRACON
Fri 12:09:13 PM 40.4167 -73.5833 30° Northeast 281 323 7,200 -800 Descending New York TRACON
Fri 12:10:13 PM 40.4833 -73.5333 30° Northeast 281 323 7,100 -708 Descending New York TRACON
Fri 12:11:54 PM 40.5950 -73.4906 16° North 259 298 5,300 -667 Descending New York Center
Fri 12:13:13 PM 40.7000 -73.5000 356° North 255 293 5,100 -432 Descending New York TRACON
Fri 12:14:13 PM 40.7667 -73.5167 349° North 213 245 4,300 -550 Descending New York TRACON
Fri 12:15:13 PM 40.8167 -73.5333 346° North 229 264 4,000 -600 Descending New York TRACON
Fri 12:16:13 PM 40.8167 -73.6167 270° West 218 251 3,100 -450 Descending New York TRACON
Fri 12:17:13 PM 40.7833 -73.6667 229° Southwest 164 189 3,100 -300 Level New York TRACON
Fri 12:18:13 PM 40.7500 -73.7000 217° Southwest 165 190 2,500 -600 Descending New York TRACON

Login

Don't have an account? Register now (free) for customized features, flight alerts, and more!